Time;durP1;ratioP1;P1;durP2;ratioP2;P2;SDS_P1;SDS_P2;PMS_P1;PMS_P2;Temp;Humidity;BMP_temperature;BMP_pressure;BME280_temperature;BME280_humidity;BME280_pressure;Samples;Min_cycle;Max_cycle;Signal;HPM_P1;HPM_P2
2023/01/07 00:01:24;;;;;;;0.80;0.80;;;;;;;9.57;43.27;95840.16;4991004;28;20214;-54
2023/01/07 00:03:52;;;;;;;0.68;0.43;;;;;;;9.60;43.76;95842.34;4991760;28;20206;-56
2023/01/07 00:06:22;;;;;;;3.60;2.50;;;;;;;10.30;42.98;95836.09;4989884;28;20292;-56
2023/01/07 00:08:50;;;;;;;3.58;2.42;;;;;;;10.38;42.58;95838.38;4991280;28;20209;-56
2023/01/07 00:11:20;;;;;;;1.15;1.10;;;;;;;10.24;42.57;95831.00;4990961;28;20229;-56
2023/01/07 00:13:51;;;;;;;0.50;0.50;;;;;;;10.40;42.06;95844.16;4991144;28;20203;-58
2023/01/07 00:16:21;;;;;;;1.13;0.73;;;;;;;9.62;43.48;95840.28;4990995;28;20666;-55
2023/01/07 00:18:50;;;;;;;2.88;1.92;;;;;;;9.72;43.57;95848.38;4991153;28;20677;-52
2023/01/07 00:21:18;;;;;;;0.57;0.57;;;;;;;9.70;43.75;95847.81;4990490;28;20217;-56
2023/01/07 00:23:47;;;;;;;5.05;1.63;;;;;;;10.14;42.74;95848.06;4991231;28;20257;-53
2023/01/07 00:26:17;;;;;;;0.90;0.90;;;;;;;9.64;43.05;95851.31;4990795;28;20222;-55
2023/01/07 00:28:46;;;;;;;1.25;1.17;;;;;;;10.00;42.97;95851.91;4990968;28;20749;-55
2023/01/07 00:31:18;;;;;;;0.38;0.38;;;;;;;10.33;42.45;95847.94;4990533;28;20250;-59
2023/01/07 00:36:27;;;;;;;0.20;0.20;;;;;;;9.73;43.19;95836.88;4971175;28;20566;-56
2023/01/07 00:39:15;;;;;;;0.05;0.05;;;;;;;9.90;44.27;95845.66;4982971;28;20237;-57
2023/01/07 00:42:52;;;;;;;2.22;0.77;;;;;;;9.43;44.28;95844.81;4988906;28;20306;-58
2023/01/07 00:44:31;;;;;;;2.75;1.90;;;;;;;10.12;42.28;95844.09;4988519;28;20210;-54
2023/01/07 00:46:58;;;;;;;0.20;0.20;;;;;;;10.15;42.47;95848.88;4990570;28;20206;-57
2023/01/07 00:49:26;;;;;;;1.05;1.00;;;;;;;9.95;42.46;95853.63;4990046;28;20289;-58
2023/01/07 00:51:52;;;;;;;0.75;0.70;;;;;;;9.68;43.01;95857.72;4990223;28;20210;-54
2023/01/07 00:54:20;;;;;;;4.88;2.75;;;;;;;8.97;43.97;95861.19;4970935;28;20234;-57
2023/01/07 00:56:46;;;;;;;0.55;0.55;;;;;;;9.16;44.16;95848.81;4983069;28;20237;-56
2023/01/07 00:59:13;;;;;;;1.20;1.05;;;;;;;9.69;43.35;95854.09;4988741;28;20789;-54
2023/01/07 01:01:42;;;;;;;0.57;0.57;;;;;;;9.82;43.40;95859.88;4988741;28;20202;-56
2023/01/07 01:04:09;;;;;;;2.15;0.73;;;;;;;9.82;42.87;95859.06;4989911;28;20241;-58
2023/01/07 01:06:36;;;;;;;0.25;0.25;;;;;;;9.74;43.22;95862.03;4989823;28;20253;-56
2023/01/07 01:09:02;;;;;;;0.22;0.22;;;;;;;9.83;42.79;95876.38;4989716;28;20202;-55
2023/01/07 01:11:29;;;;;;;0.88;0.88;;;;;;;9.54;43.47;95875.44;4987739;28;20278;-54
2023/01/07 01:13:56;;;;;;;0.35;0.35;;;;;;;9.43;43.65;95881.44;4989854;28;20210;-54
2023/01/07 01:16:23;;;;;;;0.28;0.28;;;;;;;9.44;43.61;95867.34;4989903;28;20260;-58
2023/01/07 01:18:51;;;;;;;0.52;0.52;;;;;;;8.80;45.09;95872.44;4989743;28;20875;-58
2023/01/07 01:21:18;;;;;;;1.48;0.82;;;;;;;9.47;43.81;95871.34;4989509;28;20285;-55
2023/01/07 01:23:45;;;;;;;0.90;0.65;;;;;;;8.75;44.81;95877.53;4989893;28;20294;-55
2023/01/07 01:26:14;;;;;;;0.00;0.00;;;;;;;8.49;45.26;95877.84;4989449;28;20309;-55
2023/01/07 01:28:42;;;;;;;1.55;1.40;;;;;;;9.03;44.43;95869.94;4988249;28;20206;-55
2023/01/07 01:31:10;;;;;;;0.60;0.60;;;;;;;9.19;44.46;95864.91;4978560;28;20235;-56
2023/01/07 01:33:43;;;;;;;0.47;0.47;;;;;;;9.40;43.75;95878.50;4989964;28;20565;-57
2023/01/07 01:36:11;;;;;;;0.00;0.00;;;;;;;9.58;43.71;95868.72;4988853;28;20203;-56
2023/01/07 01:38:39;;;;;;;1.70;1.27;;;;;;;9.39;43.69;95871.66;4988033;28;20203;-56
2023/01/07 01:41:07;;;;;;;0.20;0.20;;;;;;;9.23;44.21;95870.47;4974572;28;20302;-56
2023/01/07 01:43:39;;;;;;;0.75;0.75;;;;;;;9.27;44.09;95862.97;4988152;28;20226;-56
2023/01/07 01:46:14;;;;;;;0.40;0.40;;;;;;;9.11;44.59;95867.81;4988756;28;20202;-56
2023/01/07 01:48:47;;;;;;;0.17;0.17;;;;;;;9.14;44.27;95872.59;4977207;28;20215;-56
2023/01/07 01:51:19;;;;;;;1.38;1.20;;;;;;;8.78;45.01;95867.44;4988176;28;20222;-57
2023/01/07 01:53:46;;;;;;;0.10;0.10;;;;;;;7.87;47.42;95868.41;4988121;28;20225;-57
2023/01/07 01:56:18;;;;;;;0.10;0.10;;;;;;;8.28;47.19;95860.00;4988910;28;20582;-54
2023/01/07 01:58:52;;;;;;;0.32;0.32;;;;;;;8.20;47.08;95863.66;4988233;28;20214;-58
2023/01/07 02:01:19;;;;;;;1.08;0.80;;;;;;;7.91;47.54;95861.75;4978603;28;20297;-56
2023/01/07 02:03:48;;;;;;;1.08;0.93;;;;;;;8.15;47.27;95847.84;4969388;28;20560;-56
2023/01/07 02:06:23;;;;;;;0.00;0.00;;;;;;;8.63;46.35;95859.19;4979316;28;20223;-57
2023/01/07 02:08:52;;;;;;;0.57;0.57;;;;;;;8.52;46.52;95846.84;4971409;28;20206;-54
2023/01/07 02:11:54;;;;;;;0.00;0.00;;;;;;;8.28;46.76;95850.38;4977921;28;20309;-56
2023/01/07 02:15:01;;;;;;;0.57;0.30;;;;;;;8.73;46.48;95856.88;4977849;28;20208;-56
2023/01/07 02:17:52;;;;;;;0.17;0.17;;;;;;;7.62;48.47;95859.78;4978091;28;20284;-57
2023/01/07 02:20:28;;;;;;;0.20;0.20;;;;;;;7.36;48.43;95854.78;4987058;28;20607;-56
2023/01/07 02:23:36;;;;;;;1.55;0.50;;;;;;;7.66;48.56;95863.59;4989567;28;20237;-57
2023/01/07 02:26:37;;;;;;;0.10;0.10;;;;;;;8.01;47.62;95855.00;4987491;28;20213;-57
2023/01/07 02:29:19;;;;;;;0.13;0.13;;;;;;;8.23;47.33;95853.59;4980930;28;20656;-56
2023/01/07 02:32:07;;;;;;;2.67;1.60;;;;;;;8.28;46.39;95849.56;4992141;28;20225;-55
2023/01/07 02:34:38;;;;;;;0.98;0.57;;;;;;;8.49;46.15;95846.50;4992559;28;20194;-57
2023/01/07 02:37:29;;;;;;;1.38;1.27;;;;;;;7.82;47.67;95856.00;4981845;28;20563;-57
2023/01/07 02:40:28;;;;;;;0.00;0.00;;;;;;;7.99;47.12;95853.66;4991205;28;20205;-56
2023/01/07 02:43:40;;;;;;;0.17;0.17;;;;;;;8.37;46.51;95853.47;4989930;28;20654;-55
2023/01/07 02:46:22;;;;;;;0.00;0.00;;;;;;;8.38;45.89;95853.25;4991253;28;20225;-55
2023/01/07 02:48:50;;;;;;;1.65;0.95;;;;;;;8.19;46.84;95851.63;4991442;28;20757;-56
2023/01/07 02:51:17;;;;;;;0.60;0.60;;;;;;;8.24;46.86;95857.03;4990988;28;20210;-57
2023/01/07 02:53:47;;;;;;;0.00;0.00;;;;;;;8.43;45.96;95861.22;4990979;28;20194;-57
2023/01/07 02:56:21;;;;;;;0.65;0.65;;;;;;;8.43;46.17;95861.22;4971403;28;20235;-53
2023/01/07 02:59:05;;;;;;;2.35;1.23;;;;;;;8.53;45.65;95843.25;4987346;28;20202;-57
2023/01/07 03:02:12;;;;;;;0.95;0.93;;;;;;;8.60;46.08;95849.19;4990793;28;20202;-57
2023/01/07 03:05:08;;;;;;;0.10;0.10;;;;;;;8.44;46.12;95841.94;4992778;28;20211;-57
2023/01/07 03:07:44;;;;;;;0.88;0.85;;;;;;;8.09;47.04;95853.94;4990701;28;20707;-55
2023/01/07 03:10:24;;;;;;;0.50;0.50;;;;;;;8.13;47.09;95860.34;4990712;28;20210;-55
2023/01/07 03:13:06;;;;;;;0.63;0.63;;;;;;;7.98;46.48;95857.25;4990992;28;20205;-55
2023/01/07 03:16:09;;;;;;;1.05;1.00;;;;;;;7.91;46.73;95843.47;4992085;28;20218;-56
2023/01/07 03:18:42;;;;;;;0.93;0.85;;;;;;;8.23;46.11;95848.38;4996640;28;20948;-57
2023/01/07 03:21:15;;;;;;;0.50;0.50;;;;;;;8.49;46.47;95847.31;4990928;28;20246;-56
2023/01/07 03:23:50;;;;;;;0.40;0.40;;;;;;;8.47;46.12;95845.91;4990616;28;20210;-56
2023/01/07 03:26:22;;;;;;;1.05;1.05;;;;;;;7.84;47.00;95858.41;4990464;28;20198;-55
2023/01/07 03:28:51;;;;;;;0.32;0.20;;;;;;;7.68;47.63;95864.94;4989987;28;20202;-57
2023/01/07 03:31:20;;;;;;;0.65;0.60;;;;;;;7.87;46.83;95863.19;4990377;28;20234;-57
2023/01/07 03:33:57;;;;;;;0.43;0.43;;;;;;;7.81;46.81;95854.41;4990297;28;20199;-55
2023/01/07 03:36:29;;;;;;;1.17;1.08;;;;;;;7.74;46.97;95865.91;4991187;28;20201;-57
2023/01/07 03:38:57;;;;;;;0.13;0.13;;;;;;;7.98;46.42;95865.91;4989980;28;20198;-52
2023/01/07 03:44:12;;;;;;;0.13;0.13;;;;;;;7.66;46.46;95872.22;4990254;28;20210;-56
2023/01/07 03:46:39;;;;;;;7.32;0.98;;;;;;;7.84;46.50;95867.03;4991752;28;20194;-55
2023/01/07 03:49:06;;;;;;;0.32;0.32;;;;;;;8.15;46.14;95868.75;4990532;28;20229;-57
2023/01/07 03:51:34;;;;;;;1.45;0.88;;;;;;;8.32;45.09;95867.16;4982023;28;20290;-53
2023/01/07 03:54:01;;;;;;;0.65;0.45;;;;;;;8.17;45.44;95870.09;4986783;28;20289;-55
2023/01/07 03:56:28;;;;;;;3.80;2.67;;;;;;;8.34;45.17;95862.53;4989556;28;20278;-55
2023/01/07 03:58:55;;;;;;;0.90;0.90;;;;;;;8.05;45.01;95868.44;4990022;28;20226;-54
2023/01/07 04:01:22;;;;;;;2.50;2.00;;;;;;;7.96;45.81;95869.72;4991048;28;20240;-56
2023/01/07 04:03:49;;;;;;;1.08;1.08;;;;;;;8.07;45.21;95869.00;4976749;28;20217;-55
2023/01/07 04:06:16;;;;;;;3.35;2.38;;;;;;;8.09;45.79;95880.03;4989340;28;20199;-55
2023/01/07 04:08:43;;;;;;;1.33;1.23;;;;;;;7.98;45.94;95886.78;4991309;28;20561;-58
2023/01/07 04:11:10;;;;;;;2.33;2.15;;;;;;;7.85;46.29;95880.84;4989695;28;20688;-55
2023/01/07 04:13:37;;;;;;;3.60;2.47;;;;;;;7.68;46.41;95891.03;4990197;28;20230;-56
2023/01/07 04:16:06;;;;;;;0.63;0.63;;;;;;;7.72;46.45;95891.44;4989890;28;20198;-55
2023/01/07 04:18:33;;;;;;;2.85;2.00;;;;;;;7.70;46.51;95893.44;4991134;28;20194;-59
2023/01/07 04:21:00;;;;;;;1.30;1.20;;;;;;;7.80;46.60;95894.56;4990617;28;20261;-57
2023/01/07 04:23:27;;;;;;;2.58;2.30;;;;;;;7.98;45.92;95896.41;4990007;28;20588;-55
2023/01/07 04:25:54;;;;;;;0.47;0.47;;;;;;;7.84;45.41;95900.16;4989284;28;20722;-56
2023/01/07 04:28:23;;;;;;;0.10;0.10;;;;;;;7.61;45.88;95899.94;4971337;28;20239;-57
2023/01/07 04:30:50;;;;;;;0.20;0.20;;;;;;;7.77;45.83;95899.41;4969656;28;20245;-56
2023/01/07 04:33:18;;;;;;;4.63;2.33;;;;;;;8.01;45.53;95909.81;4988530;28;20696;-59
2023/01/07 04:35:46;;;;;;;0.68;0.68;;;;;;;8.08;45.37;95897.50;4989148;28;20651;-55
2023/01/07 04:38:14;;;;;;;1.13;0.90;;;;;;;7.84;45.77;95900.97;4989530;28;20206;-61
2023/01/07 04:40:41;;;;;;;1.52;0.93;;;;;;;7.61;46.25;95899.94;4990055;28;20333;-57
2023/01/07 04:43:08;;;;;;;1.17;1.10;;;;;;;7.84;45.45;95905.38;4971806;28;20206;-57
2023/01/07 04:45:35;;;;;;;1.20;1.08;;;;;;;7.82;45.76;95902.16;4982895;28;20199;-54
2023/01/07 04:48:02;;;;;;;0.52;0.52;;;;;;;7.61;46.58;95902.56;4989082;28;20241;-54
2023/01/07 04:50:29;;;;;;;3.42;2.05;;;;;;;7.65;46.50;95893.28;4976292;28;20644;-55
2023/01/07 04:52:56;;;;;;;0.90;0.85;;;;;;;7.57;46.48;95898.75;4969235;28;20648;-56
2023/01/07 04:55:23;;;;;;;6.80;0.85;;;;;;;7.56;46.02;95902.38;4983810;28;20195;-58
2023/01/07 04:57:50;;;;;;;1.65;1.08;;;;;;;7.51;46.28;95902.22;4978017;28;20197;-57
2023/01/07 05:00:17;;;;;;;1.95;1.85;;;;;;;7.60;45.97;95903.53;4975370;28;20906;-58
2023/01/07 05:02:47;;;;;;;2.13;0.95;;;;;;;7.47;46.46;95901.03;4988943;28;20198;-61
2023/01/07 05:05:15;;;;;;;1.33;1.23;;;;;;;7.44;46.01;95894.44;4988777;28;20205;-56
2023/01/07 05:07:43;;;;;;;3.30;2.65;;;;;;;7.32;46.90;95895.34;4973418;28;20270;-52
2023/01/07 05:10:10;;;;;;;2.17;1.98;;;;;;;7.38;47.03;95904.91;4983580;28;20578;-57
2023/01/07 05:12:38;;;;;;;1.65;1.48;;;;;;;7.53;46.15;95908.81;4989159;28;20218;-58
2023/01/07 05:15:07;;;;;;;0.50;0.50;;;;;;;7.38;46.59;95904.91;4989535;28;20685;-55
2023/01/07 05:17:37;;;;;;;1.30;1.25;;;;;;;7.29;46.99;95912.19;4988982;28;20206;-55
2023/01/07 05:20:07;;;;;;;1.58;1.48;;;;;;;7.17;47.40;95914.66;4987924;28;20607;-56
2023/01/07 05:22:35;;;;;;;0.40;0.28;;;;;;;7.17;47.37;95909.44;4989190;28;20210;-54
2023/01/07 05:25:02;;;;;;;0.60;0.60;;;;;;;7.05;47.21;95916.31;4971790;28;20207;-55
2023/01/07 05:27:30;;;;;;;10.27;3.72;;;;;;;7.38;46.95;95915.31;4986232;28;20224;-55
2023/01/07 05:29:58;;;;;;;2.60;0.93;;;;;;;7.31;46.48;95917.19;4985522;28;20222;-55
2023/01/07 05:32:25;;;;;;;1.27;1.17;;;;;;;7.27;46.18;95918.59;4989908;28;20204;-57
2023/01/07 05:34:52;;;;;;;1.30;1.13;;;;;;;6.80;47.53;95914.66;4988436;28;20743;-57
2023/01/07 05:37:20;;;;;;;2.13;1.90;;;;;;;7.17;46.47;95914.66;4988896;28;20257;-57
2023/01/07 05:39:46;;;;;;;2.63;1.95;;;;;;;7.22;46.27;95922.63;4968655;28;20218;-58
2023/01/07 05:42:17;;;;;;;0.80;0.80;;;;;;;7.32;46.57;95924.00;4969042;28;20211;-56
2023/01/07 05:44:44;;;;;;;0.80;0.80;;;;;;;7.36;46.28;95923.38;4984420;28;20251;-55
2023/01/07 05:47:11;;;;;;;0.98;0.98;;;;;;;7.15;46.61;95916.66;4980612;28;20253;-55
2023/01/07 05:49:38;;;;;;;2.05;1.95;;;;;;;7.34;46.28;95922.78;4989172;28;20210;-57
2023/01/07 05:52:04;;;;;;;0.88;0.88;;;;;;;7.46;46.33;95922.91;4989508;28;20272;-58
2023/01/07 05:54:31;;;;;;;3.60;2.58;;;;;;;7.44;45.82;95909.28;4989079;28;20275;-58
2023/01/07 05:56:58;;;;;;;1.05;1.05;;;;;;;7.46;46.23;95912.47;4989457;28;20234;-59
2023/01/07 05:59:25;;;;;;;2.88;2.65;;;;;;;7.40;46.22;95918.53;4976459;28;20214;-54
2023/01/07 06:01:51;;;;;;;7.95;3.85;;;;;;;7.49;45.74;95919.88;4989591;28;20283;-56
2023/01/07 06:04:18;;;;;;;1.95;1.05;;;;;;;7.52;44.98;95917.63;4987896;28;20566;-56
2023/01/07 06:06:45;;;;;;;0.65;0.55;;;;;;;7.56;45.72;95920.63;4989192;28;20298;-57
2023/01/07 06:09:12;;;;;;;0.70;0.70;;;;;;;7.15;45.82;95934.13;4989110;28;20316;-56
2023/01/07 06:11:39;;;;;;;2.22;1.17;;;;;;;7.07;46.68;95932.56;4989232;28;20237;-57
2023/01/07 06:14:06;;;;;;;2.88;2.63;;;;;;;7.22;46.68;95931.47;4989373;28;20190;-56
2023/01/07 06:16:32;;;;;;;0.32;0.32;;;;;;;7.18;46.93;95934.50;4988954;28;20203;-57
2023/01/07 06:18:59;;;;;;;4.35;3.92;;;;;;;7.11;46.66;95941.56;4989047;28;20222;-60
2023/01/07 06:21:26;;;;;;;0.88;0.85;;;;;;;7.37;46.04;95934.59;4987043;28;20225;-56
2023/01/07 06:23:54;;;;;;;2.28;1.60;;;;;;;7.26;46.71;95938.69;4976426;28;20238;-59
2023/01/07 06:26:21;;;;;;;0.47;0.47;;;;;;;7.11;47.12;95925.13;4988308;28;20558;-53
2023/01/07 06:28:50;;;;;;;2.22;2.05;;;;;;;7.59;46.36;95934.03;4987244;28;20253;-54
2023/01/07 06:31:17;;;;;;;4.15;3.25;;;;;;;7.48;46.40;95936.53;4988262;28;20253;-56
2023/01/07 06:33:44;;;;;;;4.70;3.13;;;;;;;7.63;45.72;95939.63;4979425;28;20199;-59
2023/01/07 06:36:11;;;;;;;3.13;2.88;;;;;;;7.77;46.09;95935.94;4988575;28;20578;-54
2023/01/07 06:38:38;;;;;;;1.73;1.30;;;;;;;7.90;45.02;95941.06;4982756;28;20285;-58
2023/01/07 06:41:04;;;;;;;6.43;3.80;;;;;;;7.80;45.94;95941.53;4988137;28;20567;-55
2023/01/07 06:43:31;;;;;;;1.33;1.23;;;;;;;8.12;45.35;95935.22;4984568;28;20229;-56
2023/01/07 06:45:59;;;;;;;3.35;3.05;;;;;;;7.97;46.23;95926.13;4988273;28;20213;-56
2023/01/07 06:48:27;;;;;;;4.32;3.25;;;;;;;8.21;46.03;95933.16;4989147;28;20309;-60
2023/01/07 06:50:54;;;;;;;7.07;3.70;;;;;;;8.18;46.04;95939.59;4988374;28;20233;-57
2023/01/07 06:53:20;;;;;;;2.80;2.60;;;;;;;8.31;45.02;95949.16;4989068;28;20309;-55
2023/01/07 06:55:48;;;;;;;4.05;3.65;;;;;;;8.49;45.15;95941.34;4988628;28;20272;-58
2023/01/07 06:58:16;;;;;;;2.15;1.58;;;;;;;8.44;44.98;95949.03;4989098;28;20199;-57
2023/01/07 07:00:44;;;;;;;4.60;3.65;;;;;;;8.22;45.50;95934.75;4988018;28;20285;-57
2023/01/07 07:03:10;;;;;;;2.35;2.15;;;;;;;8.65;44.92;95951.22;4989260;28;20190;-59
2023/01/07 07:05:37;;;;;;;1.40;1.35;;;;;;;8.18;45.17;95949.22;4988109;28;20210;-56
2023/01/07 07:08:05;;;;;;;2.75;2.42;;;;;;;8.56;44.77;95957.72;4989299;28;20577;-57
2023/01/07 07:10:32;;;;;;;0.65;0.65;;;;;;;8.73;44.89;95948.31;4988212;28;20195;-60
2023/01/07 07:12:59;;;;;;;3.13;2.38;;;;;;;8.66;44.33;95947.59;4988612;28;20210;-54
2023/01/07 07:15:26;;;;;;;2.03;1.42;;;;;;;8.90;44.87;95946.72;4989120;28;20488;-54
2023/01/07 07:17:53;;;;;;;6.55;2.45;;;;;;;9.19;44.02;95942.53;4992574;28;20435;-58
2023/01/07 07:20:20;;;;;;;5.43;2.75;;;;;;;9.42;46.21;95947.03;4991771;28;20198;-59
2023/01/07 07:22:47;;;;;;;4.95;1.08;;;;;;;9.38;45.91;95948.53;4991631;28;20233;-55
2023/01/07 07:25:14;;;;;;;3.70;2.33;;;;;;;9.55;44.56;95944.25;4991270;28;20194;-59
2023/01/07 07:27:45;;;;;;;0.75;0.75;;;;;;;9.42;44.75;95952.28;4991862;28;20321;-57
2023/01/07 07:30:13;;;;;;;1.45;1.35;;;;;;;9.50;44.27;95950.16;4978217;28;20234;-57
2023/01/07 07:32:41;;;;;;;3.13;0.55;;;;;;;9.58;43.89;95951.69;4992023;28;20241;-58
2023/01/07 07:35:09;;;;;;;5.25;4.07;;;;;;;9.56;43.93;95943.25;4991703;28;20241;-57
2023/01/07 07:37:36;;;;;;;1.80;1.67;;;;;;;9.39;43.80;95943.06;4991963;28;20615;-56
2023/01/07 07:40:05;;;;;;;2.97;2.72;;;;;;;9.51;44.19;95943.09;4991806;28;20198;-57
2023/01/07 07:42:31;;;;;;;3.60;2.42;;;;;;;9.20;44.82;95939.69;4991839;28;20199;-57
2023/01/07 07:45:18;;;;;;;2.72;1.90;;;;;;;8.81;45.30;95948.00;4991655;28;20194;-60
2023/01/07 07:47:45;;;;;;;0.50;0.50;;;;;;;9.46;43.98;95941.16;4991704;28;20198;-56
2023/01/07 07:50:12;;;;;;;1.20;1.08;;;;;;;9.55;44.60;95941.63;4991380;28;20205;-54
2023/01/07 07:52:40;;;;;;;1.88;1.00;;;;;;;9.94;43.74;95939.25;4991436;28;20210;-58
2023/01/07 07:55:07;;;;;;;0.90;0.90;;;;;;;10.09;43.20;95944.06;4991506;28;20277;-58
2023/01/07 07:57:53;;;;;;;2.92;2.70;;;;;;;10.36;42.86;95939.19;4991785;28;20194;-59
2023/01/07 08:00:20;;;;;;;2.15;0.88;;;;;;;9.89;42.93;95933.88;4991115;28;20202;-58
2023/01/07 08:02:47;;;;;;;1.13;1.13;;;;;;;10.17;43.36;95941.09;4991266;28;20226;-57
2023/01/07 08:05:14;;;;;;;3.92;2.63;;;;;;;10.47;43.40;95931.31;4991053;28;20301;-58
2023/01/07 08:07:41;;;;;;;0.73;0.73;;;;;;;10.59;42.96;95934.72;4991995;28;20233;-57
2023/01/07 08:10:08;;;;;;;2.95;2.75;;;;;;;10.69;42.41;95934.91;4991179;28;20269;-56
2023/01/07 08:12:37;;;;;;;2.65;1.65;;;;;;;10.97;42.12;95942.03;4991074;28;20643;-60
2023/01/07 08:15:05;;;;;;;3.67;3.33;;;;;;;10.54;42.94;95942.47;4990689;28;20201;-56
2023/01/07 08:17:32;;;;;;;0.77;0.77;;;;;;;10.82;42.41;95939.91;4991220;28;20445;-55
2023/01/07 08:19:59;;;;;;;0.93;0.93;;;;;;;11.16;41.95;95931.19;4990979;28;20233;-58
2023/01/07 08:22:26;;;;;;;2.97;1.80;;;;;;;11.44;41.50;95942.69;4991339;28;20944;-57
2023/01/07 08:24:53;;;;;;;3.20;2.50;;;;;;;11.39;41.13;95938.16;4990827;28;20878;-58
2023/01/07 08:27:20;;;;;;;7.17;2.43;;;;;;;11.29;41.71;95937.16;4990438;28;21255;-59
2023/01/07 08:29:47;;;;;;;1.35;1.25;;;;;;;11.49;41.10;95929.66;4989649;28;20556;-58
2023/01/07 08:32:14;;;;;;;5.83;3.27;;;;;;;11.85;40.61;95929.28;4990861;28;20202;-57
2023/01/07 08:34:40;;;;;;;3.03;2.63;;;;;;;11.94;40.94;95933.91;4990885;28;20516;-55
2023/01/07 08:37:07;;;;;;;4.37;2.57;;;;;;;12.38;40.52;95934.84;4990781;28;20528;-56
2023/01/07 08:39:34;;;;;;;0.90;0.70;;;;;;;12.30;40.45;95931.84;4990097;28;20450;-53
2023/01/07 08:42:01;;;;;;;2.47;2.27;;;;;;;12.90;39.36;95917.66;4990661;28;20528;-58
2023/01/07 08:44:27;;;;;;;3.23;2.93;;;;;;;12.93;39.44;95927.72;4990107;28;20453;-58
2023/01/07 08:46:54;;;;;;;2.60;2.17;;;;;;;13.45;38.94;95919.38;4990729;28;20448;-55
2023/01/07 08:49:22;;;;;;;5.07;3.00;;;;;;;13.60;38.42;95914.25;4989221;28;20576;-56
2023/01/07 08:51:48;;;;;;;1.10;1.00;;;;;;;13.65;38.25;95919.56;4990608;28;20828;-58
2023/01/07 08:54:15;;;;;;;3.03;2.73;;;;;;;14.47;37.05;95906.81;4989986;28;20500;-58
2023/01/07 08:56:42;;;;;;;6.77;3.17;;;;;;;14.64;37.15;95910.03;4989987;28;20496;-58
2023/01/07 08:59:09;;;;;;;1.70;1.60;;;;;;;15.02;36.05;95907.06;5002977;28;20469;-57
2023/01/07 09:01:36;;;;;;;3.20;2.67;;;;;;;15.05;35.52;95909.22;4989774;28;21205;-55
2023/01/07 09:04:03;;;;;;;1.30;1.30;;;;;;;14.87;35.64;95899.09;4990254;28;21271;-56
2023/01/07 09:06:30;;;;;;;9.13;2.73;;;;;;;15.10;34.86;95894.19;4990320;28;20457;-56
2023/01/07 09:08:57;;;;;;;1.80;1.43;;;;;;;15.15;35.47;95894.19;4989940;28;20904;-59
2023/01/07 09:11:24;;;;;;;6.53;3.67;;;;;;;15.25;35.95;95894.19;4989601;28;20453;-58
2023/01/07 09:13:51;;;;;;;1.17;1.13;;;;;;;15.09;36.21;95887.28;4989728;28;21028;-57
2023/01/07 09:16:18;;;;;;;1.87;1.73;;;;;;;15.25;35.36;95883.66;4989868;28;20852;-58
2023/01/07 09:18:45;;;;;;;5.93;5.40;;;;;;;15.59;35.38;95885.88;4989799;28;21001;-59
2023/01/07 09:21:11;;;;;;;3.70;2.90;;;;;;;15.69;34.98;95880.59;4989146;28;20986;-58
2023/01/07 09:23:39;;;;;;;2.53;2.33;;;;;;;15.60;35.20;95869.75;4989239;28;20473;-57
2023/01/07 09:26:06;;;;;;;2.53;2.23;;;;;;;15.77;34.89;95866.84;4989109;28;20460;-57
2023/01/07 09:28:32;;;;;;;1.10;1.10;;;;;;;15.57;34.96;95864.19;4989402;28;20987;-55
2023/01/07 09:31:00;;;;;;;0.63;0.63;;;;;;;15.80;34.29;95859.19;4989252;28;20474;-58
2023/01/07 09:33:29;;;;;;;0.33;0.33;;;;;;;15.90;34.17;95858.41;4977455;28;20454;-56
2023/01/07 09:35:55;;;;;;;4.07;3.03;;;;;;;15.80;34.19;95858.41;4989117;28;20438;-57
2023/01/07 09:38:22;;;;;;;2.07;1.13;;;;;;;16.47;33.73;95847.47;4989185;28;20865;-57
2023/01/07 09:40:50;;;;;;;0.90;0.90;;;;;;;16.71;33.46;95837.91;4988994;28;20883;-59
2023/01/07 09:43:40;;;;;;;1.90;1.13;;;;;;;16.35;35.22;95839.81;4988211;28;21118;-56
2023/01/07 09:46:27;;;;;;;2.83;1.10;;;;;;;15.52;37.34;95838.59;4987146;28;20942;-57
2023/01/07 09:49:00;;;;;;;0.90;0.87;;;;;;;15.96;34.82;95830.91;4989671;28;20575;-55
2023/01/07 09:51:34;;;;;;;31.37;2.47;;;;;;;16.68;34.24;95822.56;4989188;28;20484;-57
2023/01/07 09:54:04;;;;;;;0.90;0.87;;;;;;;16.45;34.50;95817.84;4988862;28;20939;-52
2023/01/07 09:56:33;;;;;;;3.93;2.87;;;;;;;16.95;33.33;95805.22;4989394;28;20536;-57
2023/01/07 09:59:02;;;;;;;7.70;3.20;;;;;;;16.91;33.71;95806.06;4989203;28;20481;-59
2023/01/07 10:01:47;;;;;;;3.00;2.73;;;;;;;17.19;32.89;95794.78;4983627;28;20446;-57
2023/01/07 10:04:14;;;;;;;2.90;1.27;;;;;;;16.93;32.40;95796.78;4989088;28;20754;-59
2023/01/07 10:07:20;;;;;;;3.13;2.43;;;;;;;16.75;33.04;95792.09;4995232;28;20443;-59
2023/01/07 10:10:07;;;;;;;4.90;3.33;;;;;;;16.83;33.41;95782.81;4993308;28;21023;-58
2023/01/07 10:12:39;;;;;;;2.70;2.50;;;;;;;16.84;32.92;95785.16;4995389;28;21046;-59
2023/01/07 10:15:30;;;;;;;1.40;1.27;;;;;;;16.69;33.47;95782.63;4994996;28;20469;-59
2023/01/07 10:18:11;;;;;;;3.00;1.60;;;;;;;16.79;32.90;95771.97;4985500;28;21098;-58
2023/01/07 10:21:17;;;;;;;2.83;1.67;;;;;;;15.90;33.30;95779.91;4990449;28;20452;-58
2023/01/07 10:24:09;;;;;;;0.67;0.57;;;;;;;15.90;34.30;95769.34;4985999;28;20933;-57
2023/01/07 10:26:43;;;;;;;0.83;0.83;;;;;;;15.71;33.98;95764.88;4988468;28;20446;-58
2023/01/07 10:29:18;;;;;;;2.30;1.23;;;;;;;15.37;34.24;95769.06;4987926;28;20520;-57
2023/01/07 10:31:47;;;;;;;0.67;0.67;;;;;;;14.92;35.16;95756.59;4988568;28;20512;-56
2023/01/07 10:34:23;;;;;;;1.90;0.90;;;;;;;15.69;34.31;95751.13;4988224;28;20648;-56
2023/01/07 10:36:56;;;;;;;1.13;1.00;;;;;;;16.22;33.95;95739.91;4984506;28;20454;-59
2023/01/07 10:39:35;;;;;;;7.43;6.70;;;;;;;16.24;34.72;95743.06;4985196;28;20449;-59
2023/01/07 10:42:34;;;;;;;5.03;4.07;;;;;;;16.27;34.07;95734.59;4987827;28;20449;-60
2023/01/07 10:45:10;;;;;;;1.07;1.07;;;;;;;16.74;33.64;95727.00;4974840;28;20480;-56
2023/01/07 10:47:39;;;;;;;6.07;2.07;;;;;;;16.59;34.11;95724.44;4989777;28;20578;-57
2023/01/07 10:50:25;;;;;;;0.50;0.50;;;;;;;16.58;34.41;95717.56;4988525;28;21054;-58
2023/01/07 10:53:06;;;;;;;1.63;1.53;;;;;;;16.82;33.79;95713.19;4995476;28;20472;-60
2023/01/07 10:55:57;;;;;;;8.50;2.00;;;;;;;16.88;33.64;95712.09;4988782;28;20456;-62
2023/01/07 10:58:31;;;;;;;0.60;0.60;;;;;;;16.56;34.09;95706.47;4988401;28;20980;-56
2023/01/07 11:00:59;;;;;;;4.80;2.33;;;;;;;16.78;33.78;95704.22;4988724;28;20476;-56
2023/01/07 11:03:26;;;;;;;0.30;0.30;;;;;;;16.41;34.06;95697.75;4993909;28;20532;-59
2023/01/07 11:05:58;;;;;;;2.23;1.70;;;;;;;16.89;33.68;95687.22;4988773;28;20886;-58
2023/01/07 11:08:35;;;;;;;3.13;1.07;;;;;;;16.72;33.52;95684.13;4991590;28;20458;-54
2023/01/07 11:11:03;;;;;;;1.37;1.27;;;;;;;17.16;33.47;95684.09;4989680;28;20993;-56
2023/01/07 11:13:34;;;;;;;0.80;0.80;;;;;;;17.18;33.34;95680.13;4991485;28;20967;-58
2023/01/07 11:16:09;;;;;;;3.57;2.60;;;;;;;17.24;33.08;95678.97;4990122;28;20454;-56
2023/01/07 11:19:01;;;;;;;2.53;2.33;;;;;;;17.40;33.36;95671.72;4991514;28;20488;-57
2023/01/07 11:21:51;;;;;;;0.50;0.50;;;;;;;16.94;33.36;95679.22;4989811;28;20517;-56
2023/01/07 11:24:17;;;;;;;3.87;0.83;;;;;;;17.15;32.89;95667.41;4990494;28;20974;-55
2023/01/07 11:26:45;;;;;;;1.57;1.07;;;;;;;17.22;34.03;95665.22;4984092;28;20446;-59
2023/01/07 11:29:23;;;;;;;2.13;1.47;;;;;;;17.22;33.87;95654.63;4991509;28;20533;-56
2023/01/07 11:31:57;;;;;;;0.10;0.10;;;;;;;16.14;34.01;95655.84;4983858;28;20447;-51
2023/01/07 11:34:31;;;;;;;0.00;0.00;;;;;;;16.59;34.20;95660.13;4990275;28;20440;-56
2023/01/07 11:36:57;;;;;;;0.20;0.20;;;;;;;16.60;34.09;95651.94;4988445;28;20875;-56
2023/01/07 11:39:33;;;;;;;0.27;0.27;;;;;;;16.98;33.60;95642.41;4990940;28;20477;-58
2023/01/07 11:45:16;;;;;;;4.53;4.23;;;;;;;16.91;33.77;95647.22;4990807;28;20478;-55
2023/01/07 11:47:57;;;;;;;3.53;3.23;;;;;;;17.24;33.89;95635.84;4989183;28;20534;-57
2023/01/07 11:50:33;;;;;;;0.40;0.40;;;;;;;17.33;32.88;95625.41;4990081;28;20484;-55
2023/01/07 11:53:13;;;;;;;0.93;0.60;;;;;;;17.02;33.03;95622.25;4978664;28;20449;-56
2023/01/07 11:56:05;;;;;;;0.77;0.77;;;;;;;17.92;32.70;95620.56;4989779;28;20991;-55
2023/01/07 11:58:42;;;;;;;1.07;1.07;;;;;;;18.67;31.53;95616.13;4986122;28;20446;-57
2023/01/07 12:01:11;;;;;;;1.80;0.83;;;;;;;18.69;30.62;95604.16;4988472;28;20470;-54
2023/01/07 12:03:51;;;;;;;0.90;0.90;;;;;;;19.80;30.12;95602.25;4991001;28;20449;-55
2023/01/07 12:06:19;;;;;;;4.43;1.43;;;;;;;19.04;29.64;95590.34;4989428;28;20836;-54
2023/01/07 12:09:02;;;;;;;0.00;0.00;;;;;;;20.63;28.77;95588.56;4990510;28;20480;-58